Time;durP1;ratioP1;P1;durP2;ratioP2;P2;SDS_P1;SDS_P2;PMS_P1;PMS_P2;Temp;Humidity;BMP_temperature;BMP_pressure;BME280_temperature;BME280_humidity;BME280_pressure;Samples;Min_cycle;Max_cycle;Signal;HPM_P1;HPM_P2
2022/04/24 00:01:06;;;;;;;;;;;;;;;19.86;43.44;100202.28;5123748;27;2479;-60
2022/04/24 00:03:33;;;;;;;;;;;;;;;19.85;43.49;100197.91;5121075;27;2723;-60
2022/04/24 00:05:59;;;;;;;;;;;;;;;19.86;43.41;100199.41;5122452;27;2702;-60
2022/04/24 00:08:26;;;;;;;;;;;;;;;19.86;43.37;100200.13;5126137;27;2479;-60
2022/04/24 00:10:53;;;;;;;;;;;;;;;19.85;43.38;100195.78;5124933;27;2641;-60
2022/04/24 00:13:19;;;;;;;;;;;;;;;19.86;43.41;100193.66;5119411;27;3378;-59
2022/04/24 00:15:45;;;;;;;;;;;;;;;19.86;43.42;100193.66;5124300;27;2579;-59
2022/04/24 00:18:13;;;;;;;;;;;;;;;19.84;43.43;100187.81;5124285;27;2458;-60
2022/04/24 00:20:39;;;;;;;;;;;;;;;19.85;43.40;100195.03;5122601;27;2751;-60
2022/04/24 00:23:06;;;;;;;;;;;;;;;19.84;43.28;100193.56;5109117;27;2689;-59
2022/04/24 00:25:32;;;;;;;;;;;;;;;19.82;43.37;100194.22;5125853;27;2196;-59
2022/04/24 00:28:00;;;;;;;;;;;;;;;19.84;43.41;100184.97;5125857;27;2579;-59
2022/04/24 00:30:27;;;;;;;;;;;;;;;19.83;43.41;100186.34;5121550;27;2338;-59
2022/04/24 00:32:54;;;;;;;;;;;;;;;19.84;43.37;100184.97;5123775;27;2320;-59
2022/04/24 00:35:20;;;;;;;;;;;;;;;19.84;43.40;100179.22;5125156;28;2839;-60
2022/04/24 00:37:46;;;;;;;;;;;;;;;19.83;43.48;100178.44;5124900;27;2573;-59
2022/04/24 00:40:13;;;;;;;;;;;;;;;19.83;43.38;100180.59;5132911;27;2264;-59
2022/04/24 00:42:39;;;;;;;;;;;;;;;19.82;43.37;100182.72;5131076;27;2441;-59
2022/04/24 00:45:06;;;;;;;;;;;;;;;19.83;43.40;100174.84;5130379;27;2628;-60
2022/04/24 00:47:41;;;;;;;;;;;;;;;19.82;43.39;100182.72;5109269;27;3361;-60
2022/04/24 00:50:08;;;;;;;;;;;;;;;19.82;43.29;100170.50;5130316;27;2603;-60
2022/04/24 00:52:34;;;;;;;;;;;;;;;19.84;43.39;100173.47;5131815;27;2604;-60
2022/04/24 00:55:01;;;;;;;;;;;;;;;19.82;43.15;100164.75;5129133;27;2671;-60
2022/04/24 00:57:27;;;;;;;;;;;;;;;19.82;43.37;100159.03;5133090;27;2520;-60
2022/04/24 00:59:54;;;;;;;;;;;;;;;19.79;43.30;100160.31;5109300;27;3377;-60
2022/04/24 01:02:20;;;;;;;;;;;;;;;19.79;43.36;100154.56;5128618;27;2925;-60
2022/04/24 01:04:46;;;;;;;;;;;;;;;19.76;43.40;100155.91;5131818;27;2797;-60
2022/04/24 01:07:13;;;;;;;;;;;;;;;19.77;43.29;100148.75;5131299;27;2900;-60
2022/04/24 01:09:40;;;;;;;;;;;;;;;19.76;43.31;100150.16;5129056;27;2889;-61
2022/04/24 01:12:07;;;;;;;;;;;;;;;19.76;43.22;100153.78;5130207;27;2794;-59
2022/04/24 01:14:33;;;;;;;;;;;;;;;19.77;43.16;100148.75;5129005;27;3382;-60
2022/04/24 01:17:00;;;;;;;;;;;;;;;19.75;43.15;100148.69;5129845;27;3048;-60
2022/04/24 01:19:26;;;;;;;;;;;;;;;19.75;43.19;100143.69;5125173;27;2806;-60
2022/04/24 01:21:53;;;;;;;;;;;;;;;19.73;43.15;100140.00;5133066;27;2781;-60
2022/04/24 01:24:21;;;;;;;;;;;;;;;19.72;43.22;100138.53;5133656;27;2893;-60
2022/04/24 01:27:02;;;;;;;;;;;;;;;19.71;43.17;100145.66;5128179;27;2873;-60
2022/04/24 01:29:29;;;;;;;;;;;;;;;19.68;43.25;100144.84;5128028;27;2552;-60
2022/04/24 01:31:59;;;;;;;;;;;;;;;19.69;43.21;100146.31;5128273;27;2568;-59
2022/04/24 01:34:25;;;;;;;;;;;;;;;19.67;43.16;100143.34;5134388;27;2659;-60
2022/04/24 01:36:52;;;;;;;;;;;;;;;19.66;43.18;100142.63;5131484;27;2728;-60
2022/04/24 01:39:18;;;;;;;;;;;;;;;19.64;43.13;100145.41;5133462;27;2577;-60
2022/04/24 01:41:45;;;;;;;;;;;;;;;19.64;43.15;100142.53;5132797;27;2592;-60
2022/04/24 01:44:11;;;;;;;;;;;;;;;19.64;43.16;100145.41;5132481;27;2509;-60
2022/04/24 01:46:37;;;;;;;;;;;;;;;19.65;43.15;100138.28;5133005;27;2457;-60
2022/04/24 01:49:04;;;;;;;;;;;;;;;19.62;43.17;100139.59;5129121;27;2537;-60
2022/04/24 01:51:30;;;;;;;;;;;;;;;19.62;43.15;100136.72;5129928;27;2308;-60
2022/04/24 01:53:57;;;;;;;;;;;;;;;19.61;43.17;100140.25;5129524;27;2593;-60
2022/04/24 01:56:23;;;;;;;;;;;;;;;19.62;43.25;100145.31;5129569;27;2488;-60
2022/04/24 01:58:50;;;;;;;;;;;;;;;19.60;43.12;100150.25;5129623;27;2571;-60
2022/04/24 02:01:16;;;;;;;;;;;;;;;19.62;43.09;100141.72;5128702;27;3091;-60
2022/04/24 02:03:43;;;;;;;;;;;;;;;19.61;43.15;100141.00;5129735;27;2632;-60
2022/04/24 02:06:09;;;;;;;;;;;;;;;19.61;43.18;100135.25;5128262;27;2615;-60
2022/04/24 02:08:36;;;;;;;;;;;;;;;19.59;43.14;100143.06;5129290;27;2544;-60
2022/04/24 02:11:03;;;;;;;;;;;;;;;19.59;43.10;100138.03;5128463;27;2655;-60
2022/04/24 02:13:29;;;;;;;;;;;;;;;19.59;43.12;100131.56;5128720;27;2733;-60
2022/04/24 02:15:56;;;;;;;;;;;;;;;19.58;43.10;100133.69;5127134;27;2572;-60
2022/04/24 02:18:22;;;;;;;;;;;;;;;19.59;43.16;100125.81;5128838;27;2311;-60
2022/04/24 02:20:49;;;;;;;;;;;;;;;19.57;43.14;100129.34;5128683;27;2393;-60
2022/04/24 02:23:16;;;;;;;;;;;;;;;19.57;43.06;100117.84;5128088;27;2564;-60
2022/04/24 02:25:42;;;;;;;;;;;;;;;19.58;43.01;100122.19;5127491;27;2647;-60
2022/04/24 02:28:08;;;;;;;;;;;;;;;19.58;43.01;100119.31;5127918;27;2414;-60
2022/04/24 02:30:35;;;;;;;;;;;;;;;19.59;42.98;100120.81;5128520;27;2553;-60
2022/04/24 02:33:01;;;;;;;;;;;;;;;19.57;43.05;100115.00;5128283;27;2581;-60
2022/04/24 02:35:28;;;;;;;;;;;;;;;19.59;42.95;100114.34;5127354;27;2505;-60
2022/04/24 02:37:54;;;;;;;;;;;;;;;19.61;42.89;100115.16;5128372;27;2735;-60
2022/04/24 02:40:21;;;;;;;;;;;;;;;19.64;42.87;100110.94;5125364;27;2538;-60
2022/04/24 02:42:49;;;;;;;;;;;;;;;19.65;42.95;100109.56;5126295;27;2363;-60
2022/04/24 02:45:15;;;;;;;;;;;;;;;19.63;43.02;100109.47;5128887;27;2268;-60
2022/04/24 02:47:42;;;;;;;;;;;;;;;19.62;43.07;100102.25;5126726;27;2568;-60
2022/04/24 02:50:08;;;;;;;;;;;;;;;19.63;42.95;100108.72;5128782;27;2256;-60
2022/04/24 02:53:04;;;;;;;;;;;;;;;19.64;43.02;100110.94;5124076;27;2696;-60
2022/04/24 02:55:30;;;;;;;;;;;;;;;19.61;43.09;100100.78;5105590;27;2508;-60
2022/04/24 02:57:57;;;;;;;;;;;;;;;19.61;43.07;100089.28;5127843;27;2597;-60
2022/04/24 03:00:24;;;;;;;;;;;;;;;19.61;43.12;100100.06;5125663;27;2610;-60
2022/04/24 03:02:51;;;;;;;;;;;;;;;19.60;43.27;100093.56;5127662;27;2609;-60
2022/04/24 03:05:18;;;;;;;;;;;;;;;19.63;43.09;100098.00;5126502;27;2601;-60
2022/04/24 03:07:45;;;;;;;;;;;;;;;19.63;43.20;100085.75;5126968;27;2486;-60
2022/04/24 03:10:11;;;;;;;;;;;;;;;19.67;43.06;100092.38;5125790;27;2720;-60
2022/04/24 03:12:38;;;;;;;;;;;;;;;19.67;43.02;100086.63;5126140;27;2584;-60
2022/04/24 03:15:05;;;;;;;;;;;;;;;19.63;43.14;100080.00;5126167;27;2532;-60
2022/04/24 03:17:32;;;;;;;;;;;;;;;19.70;42.98;100083.88;5127979;27;2627;-60
2022/04/24 03:19:59;;;;;;;;;;;;;;;19.70;43.00;100073.13;5128477;27;3070;-60
2022/04/24 03:22:26;;;;;;;;;;;;;;;19.71;42.96;100073.88;5127469;27;2581;-60
2022/04/24 03:24:52;;;;;;;;;;;;;;;19.72;42.85;100078.19;5126432;27;2580;-60
2022/04/24 03:27:19;;;;;;;;;;;;;;;19.73;42.93;100079.69;5127343;27;2534;-60
2022/04/24 03:29:45;;;;;;;;;;;;;;;19.68;43.00;100070.16;5126566;27;2516;-61
2022/04/24 03:32:11;;;;;;;;;;;;;;;19.70;42.93;100072.38;5127120;27;2609;-60
2022/04/24 03:34:38;;;;;;;;;;;;;;;19.70;42.98;100063.75;5126646;27;3686;-60
2022/04/24 03:37:05;;;;;;;;;;;;;;;19.69;42.97;100070.91;5127526;27;2636;-60
2022/04/24 03:39:32;;;;;;;;;;;;;;;19.72;42.99;100070.31;5124452;27;2520;-60
2022/04/24 03:41:58;;;;;;;;;;;;;;;19.70;43.03;100073.13;5126184;27;2652;-60
2022/04/24 03:44:25;;;;;;;;;;;;;;;19.72;43.02;100075.31;5126725;27;2570;-60
2022/04/24 03:46:51;;;;;;;;;;;;;;;19.74;43.03;100069.66;5126059;27;2521;-60
2022/04/24 03:49:17;;;;;;;;;;;;;;;19.75;42.96;100068.28;5126388;27;2405;-60
2022/04/24 03:51:44;;;;;;;;;;;;;;;19.77;42.84;100065.44;5128073;27;2668;-60
2022/04/24 03:54:10;;;;;;;;;;;;;;;19.75;42.96;100068.28;5127747;27;2636;-60
2022/04/24 03:56:37;;;;;;;;;;;;;;;19.75;42.97;100068.28;5126286;27;2589;-60
2022/04/24 03:59:03;;;;;;;;;;;;;;;19.77;42.84;100074.06;5127348;27;2532;-60
2022/04/24 04:01:29;;;;;;;;;;;;;;;19.75;42.96;100074.75;5126320;27;2651;-60
2022/04/24 04:03:57;;;;;;;;;;;;;;;19.75;42.86;100079.75;5125967;27;2749;-60
2022/04/24 04:06:24;;;;;;;;;;;;;;;19.76;42.90;100070.47;5124850;27;2636;-60
2022/04/24 04:08:50;;;;;;;;;;;;;;;19.75;42.93;100074.75;5125867;27;2607;-60
2022/04/24 04:11:16;;;;;;;;;;;;;;;19.75;42.90;100074.03;5125990;27;2564;-60
2022/04/24 04:13:43;;;;;;;;;;;;;;;19.80;42.85;100075.63;5125634;27;2652;-60
2022/04/24 04:16:09;;;;;;;;;;;;;;;19.80;42.88;100075.63;5124038;27;2609;-60
2022/04/24 04:18:36;;;;;;;;;;;;;;;19.81;42.90;100077.09;5127265;27;2410;-60
2022/04/24 04:21:02;;;;;;;;;;;;;;;19.80;42.89;100069.88;5127030;27;2604;-60
2022/04/24 04:23:28;;;;;;;;;;;;;;;19.80;42.91;100081.38;5125829;27;2568;-60
2022/04/24 04:25:55;;;;;;;;;;;;;;;19.81;43.07;100088.59;5126439;27;2539;-60
2022/04/24 04:28:21;;;;;;;;;;;;;;;19.80;42.94;100084.25;5128225;27;2414;-60
2022/04/24 04:30:48;;;;;;;;;;;;;;;19.82;42.87;100090.06;5125522;27;2591;-60
2022/04/24 04:33:15;;;;;;;;;;;;;;;19.80;42.89;100082.09;5128118;27;2398;-60
2022/04/24 04:35:41;;;;;;;;;;;;;;;19.81;42.90;100089.34;5127235;28;1601;-60
2022/04/24 04:38:07;;;;;;;;;;;;;;;19.78;42.88;100084.19;5125552;28;2613;-60
2022/04/24 04:40:34;;;;;;;;;;;;;;;19.80;42.91;100082.09;5125353;28;2783;-60
2022/04/24 04:43:00;;;;;;;;;;;;;;;19.79;42.87;100079.88;5126107;28;2139;-60
2022/04/24 04:45:27;;;;;;;;;;;;;;;19.80;42.87;100087.13;5126719;28;2432;-59
2022/04/24 04:47:53;;;;;;;;;;;;;;;19.82;42.94;100081.44;5126405;28;2893;-60
2022/04/24 04:50:19;;;;;;;;;;;;;;;19.79;42.85;100074.91;5127752;28;2288;-60
2022/04/24 04:52:46;;;;;;;;;;;;;;;19.81;42.88;100083.59;5127835;28;2489;-60
2022/04/24 04:55:12;;;;;;;;;;;;;;;19.82;42.92;100084.31;5125752;28;2504;-60
2022/04/24 04:57:39;;;;;;;;;;;;;;;19.83;42.89;100082.91;5125931;28;1823;-60
2022/04/24 05:00:05;;;;;;;;;;;;;;;19.82;42.87;100087.19;5127545;28;1613;-60
2022/04/24 05:02:34;;;;;;;;;;;;;;;19.81;42.91;100083.59;5126970;28;2462;-60
2022/04/24 05:05:01;;;;;;;;;;;;;;;19.81;42.86;100080.72;5127413;28;2525;-60
2022/04/24 05:07:28;;;;;;;;;;;;;;;19.82;42.92;100087.19;5125578;28;2643;-60
2022/04/24 05:09:54;;;;;;;;;;;;;;;19.85;42.98;100083.00;5127001;28;1573;-59
2022/04/24 05:12:24;;;;;;;;;;;;;;;19.85;42.75;100083.00;5124732;28;2568;-60
2022/04/24 05:14:50;;;;;;;;;;;;;;;19.84;42.90;100078.66;5126149;28;2708;-59
2022/04/24 05:17:17;;;;;;;;;;;;;;;19.88;42.83;100081.66;5127806;28;2437;-60
2022/04/24 05:19:43;;;;;;;;;;;;;;;19.88;42.78;100075.91;5126546;28;2525;-60
2022/04/24 05:22:12;;;;;;;;;;;;;;;19.88;42.76;100081.66;5126908;28;2501;-60
2022/04/24 05:24:39;;;;;;;;;;;;;;;19.87;42.76;100086.66;5128764;27;2481;-59
2022/04/24 05:27:06;;;;;;;;;;;;;;;19.87;42.83;100085.94;5128844;27;2501;-60
2022/04/24 05:29:32;;;;;;;;;;;;;;;19.85;42.93;100092.34;5128674;27;2620;-60
2022/04/24 05:31:59;;;;;;;;;;;;;;;19.87;42.78;100094.56;5128595;27;2403;-60
2022/04/24 05:34:25;;;;;;;;;;;;;;;19.84;42.89;100093.75;5130598;27;1713;-60
2022/04/24 05:36:52;;;;;;;;;;;;;;;19.83;42.88;100098.00;5130988;27;2325;-60
2022/04/24 05:39:18;;;;;;;;;;;;;;;19.85;42.88;100100.22;5128725;27;2572;-60
2022/04/24 05:41:45;;;;;;;;;;;;;;;19.86;42.92;100084.47;5130381;27;2498;-60
2022/04/24 05:44:11;;;;;;;;;;;;;;;19.86;42.80;100090.22;5129363;27;2391;-60
2022/04/24 05:46:37;;;;;;;;;;;;;;;19.86;42.83;100090.22;5129822;27;1613;-60
2022/04/24 05:49:04;;;;;;;;;;;;;;;19.85;42.83;100083.72;5129486;27;2690;-60
2022/04/24 05:51:36;;;;;;;;;;;;;;;19.86;42.83;100090.97;5128581;27;2446;-60
2022/04/24 05:54:03;;;;;;;;;;;;;;;19.86;42.88;100085.22;5129719;27;2588;-60
2022/04/24 05:56:29;;;;;;;;;;;;;;;19.88;42.89;100087.41;5128509;27;2381;-60
2022/04/24 05:58:56;;;;;;;;;;;;;;;19.89;42.84;100088.88;5131858;27;1660;-60
2022/04/24 06:01:22;;;;;;;;;;;;;;;19.90;42.84;100086.75;5127664;27;2415;-60
2022/04/24 06:03:49;;;;;;;;;;;;;;;19.87;43.00;100083.78;5129971;27;2596;-60
2022/04/24 06:06:16;;;;;;;;;;;;;;;19.88;42.81;100088.16;5130224;27;2386;-60
2022/04/24 06:08:43;;;;;;;;;;;;;;;19.87;42.81;100078.06;5127962;27;2647;-60
2022/04/24 06:11:09;;;;;;;;;;;;;;;19.87;42.88;100091.69;5129179;27;1890;-60
2022/04/24 06:13:36;;;;;;;;;;;;;;;19.88;42.81;100088.16;5129676;27;2470;-60
2022/04/24 06:16:02;;;;;;;;;;;;;;;19.88;42.83;100084.53;5129817;27;2410;-60
2022/04/24 06:18:29;;;;;;;;;;;;;;;19.90;42.87;100083.88;5130740;27;2611;-60
2022/04/24 06:20:55;;;;;;;;;;;;;;;19.87;42.85;100083.78;5129270;27;1759;-60
2022/04/24 06:23:22;;;;;;;;;;;;;;;19.90;42.82;100081.00;5128849;27;2493;-60
2022/04/24 06:25:48;;;;;;;;;;;;;;;19.90;42.85;100078.84;5128885;27;2416;-60
2022/04/24 06:28:15;;;;;;;;;;;;;;;19.88;42.80;100070.16;5130602;27;2454;-60
2022/04/24 06:30:41;;;;;;;;;;;;;;;19.90;42.85;100073.09;5129013;27;2272;-60
2022/04/24 06:33:09;;;;;;;;;;;;;;;19.89;42.88;100068.78;5129724;27;2689;-60
2022/04/24 06:35:35;;;;;;;;;;;;;;;19.94;42.79;100078.28;5129236;27;2315;-60
2022/04/24 06:38:01;;;;;;;;;;;;;;;19.92;42.84;100076.06;5128627;27;2616;-60
2022/04/24 06:40:28;;;;;;;;;;;;;;;19.90;42.96;100067.38;5128528;27;2616;-60
2022/04/24 06:43:01;;;;;;;;;;;;;;;19.90;42.92;100073.09;5129513;27;1776;-60
2022/04/24 06:45:31;;;;;;;;;;;;;;;19.90;42.92;100067.38;5127894;27;1561;-60
2022/04/24 06:47:58;;;;;;;;;;;;;;;19.94;42.89;100058.16;5129557;27;2669;-60
2022/04/24 06:50:25;;;;;;;;;;;;;;;19.91;42.81;100057.34;5128632;27;2269;-60
2022/04/24 06:53:10;;;;;;;;;;;;;;;19.91;42.75;100068.84;5127912;27;2608;-60
2022/04/24 06:55:37;;;;;;;;;;;;;;;19.92;42.80;100058.81;5127573;27;2534;-60
2022/04/24 06:58:04;;;;;;;;;;;;;;;19.93;42.85;100065.28;5129569;27;1563;-60
2022/04/24 07:00:31;;;;;;;;;;;;;;;19.92;42.82;100063.84;5128630;27;2330;-60
2022/04/24 07:03:18;;;;;;;;;;;;;;;19.90;42.88;100055.88;5119515;27;2735;-60
2022/04/24 07:05:45;;;;;;;;;;;;;;;19.89;42.93;100065.91;5111478;27;2421;-60
2022/04/24 07:08:11;;;;;;;;;;;;;;;19.89;42.84;100048.66;5110632;27;2522;-60
2022/04/24 07:10:38;;;;;;;;;;;;;;;19.91;42.79;100053.75;5114820;27;2441;-60
2022/04/24 07:13:04;;;;;;;;;;;;;;;19.91;42.94;100056.63;5113439;27;2512;-60
2022/04/24 07:15:31;;;;;;;;;;;;;;;19.92;42.82;100046.59;5114809;27;2374;-60
2022/04/24 07:17:58;;;;;;;;;;;;;;;19.92;42.81;100049.47;5115128;27;2465;-60
2022/04/24 07:20:24;;;;;;;;;;;;;;;19.90;42.95;100053.00;5110621;27;2409;-60
2022/04/24 07:22:51;;;;;;;;;;;;;;;19.89;42.82;100040.03;5109888;27;2651;-60
2022/04/24 07:25:19;;;;;;;;;;;;;;;19.87;42.84;100048.59;5112992;27;2683;-60
2022/04/24 07:27:45;;;;;;;;;;;;;;;19.87;42.84;100052.19;5111389;27;2512;-60
2022/04/24 07:30:15;;;;;;;;;;;;;;;19.91;42.90;100040.13;5111951;27;2671;-60
2022/04/24 07:32:42;;;;;;;;;;;;;;;19.89;42.79;100042.91;5113611;27;2553;-60
2022/04/24 07:35:08;;;;;;;;;;;;;;;19.90;42.71;100038.63;5111463;27;2489;-60
2022/04/24 07:37:35;;;;;;;;;;;;;;;19.90;42.92;100029.28;5112231;27;2431;-60
2022/04/24 07:40:01;;;;;;;;;;;;;;;19.89;42.80;100034.28;5113617;27;2583;-60
2022/04/24 07:42:28;;;;;;;;;;;;;;;19.91;42.79;100022.88;5111364;27;2657;-59
2022/04/24 07:44:54;;;;;;;;;;;;;;;19.89;42.85;100025.69;5114650;27;2560;-60
2022/04/24 07:47:20;;;;;;;;;;;;;;;19.90;42.81;100015.66;5114040;27;2544;-60
2022/04/24 07:49:47;;;;;;;;;;;;;;;19.91;42.81;100028.63;5109077;27;2458;-60
2022/04/24 07:52:13;;;;;;;;;;;;;;;19.89;42.85;100019.94;5111636;27;2655;-60
2022/04/24 07:54:39;;;;;;;;;;;;;;;19.87;42.78;100022.72;5114980;27;2437;-60
2022/04/24 07:57:06;;;;;;;;;;;;;;;19.87;42.88;100016.97;5110912;27;2452;-59
2022/04/24 07:59:34;;;;;;;;;;;;;;;19.87;42.87;100011.25;5107664;27;2580;-60
2022/04/24 08:02:00;;;;;;;;;;;;;;;19.87;42.86;100016.97;5119408;27;2589;-60
2022/04/24 08:04:27;;;;;;;;;;;;;;;19.86;42.83;100009.78;5110030;27;2540;-60
2022/04/24 08:06:53;;;;;;;;;;;;;;;19.85;42.84;100002.56;5112490;27;2435;-60
2022/04/24 08:09:19;;;;;;;;;;;;;;;19.84;42.85;100003.97;5111755;27;2814;-60
2022/04/24 08:11:46;;;;;;;;;;;;;;;19.88;42.84;100001.22;5109712;27;2411;-60
2022/04/24 08:14:12;;;;;;;;;;;;;;;19.85;42.83;100002.56;5112833;27;2509;-60
2022/04/24 08:16:38;;;;;;;;;;;;;;;19.84;42.84;100001.09;5116304;27;2768;-60
2022/04/24 08:19:05;;;;;;;;;;;;;;;19.86;42.87;100004.75;5121559;27;2602;-60
2022/04/24 08:21:32;;;;;;;;;;;;;;;19.85;42.81;99988.91;5125522;27;2312;-60
2022/04/24 08:23:58;;;;;;;;;;;;;;;19.86;42.77;99992.53;5123545;27;2724;-60
2022/04/24 08:26:26;;;;;;;;;;;;;;;19.88;42.81;99989.72;5126436;27;2601;-60
2022/04/24 08:28:52;;;;;;;;;;;;;;;19.88;42.81;99993.34;5124039;27;2578;-60
2022/04/24 08:31:18;;;;;;;;;;;;;;;19.89;42.86;99991.19;5122589;27;2462;-60
2022/04/24 08:33:45;;;;;;;;;;;;;;;19.88;42.82;99983.97;5124992;27;2196;-60
2022/04/24 08:36:11;;;;;;;;;;;;;;;19.89;42.73;99991.19;5125068;27;2583;-60
2022/04/24 08:38:37;;;;;;;;;;;;;;;19.91;42.68;99981.94;5125548;28;2735;-60
2022/04/24 08:41:04;;;;;;;;;;;;;;;19.91;42.81;99974.03;5121006;28;2513;-60
2022/04/24 08:43:30;;;;;;;;;;;;;;;19.90;42.84;99997.69;5108282;28;2412;-60
2022/04/24 08:45:56;;;;;;;;;;;;;;;19.84;43.37;99990.31;5108050;28;2319;-60
2022/04/24 08:48:23;;;;;;;;;;;;;;;19.89;43.20;99985.47;5126573;28;2542;-60
2022/04/24 08:50:49;;;;;;;;;;;;;;;19.92;42.95;99983.38;5127900;28;2316;-59
2022/04/24 08:53:16;;;;;;;;;;;;;;;19.89;43.11;99979.72;5126031;28;2733;-59
2022/04/24 08:55:42;;;;;;;;;;;;;;;19.87;43.06;99986.13;5108457;28;2699;-60
2022/04/24 08:58:08;;;;;;;;;;;;;;;19.88;42.96;99981.09;5106487;27;2408;-60
2022/04/24 09:00:35;;;;;;;;;;;;;;;19.87;42.78;99977.50;5111136;27;2670;-60
2022/04/24 09:03:01;;;;;;;;;;;;;;;19.87;42.60;99988.25;5129162;27;2618;-60
2022/04/24 09:05:30;;;;;;;;;;;;;;;19.88;42.38;99983.97;5129559;27;3037;-60
2022/04/24 09:08:10;;;;;;;;;;;;;;;19.87;42.15;99982.50;5123104;27;3418;-60
2022/04/24 09:10:56;;;;;;;;;;;;;;;19.90;41.96;99984.03;5127987;27;2543;-60
2022/04/24 09:13:29;;;;;;;;;;;;;;;19.90;41.72;99981.16;5129708;27;2539;-60
2022/04/24 09:15:59;;;;;;;;;;;;;;;19.87;41.99;99971.03;5129336;27;2521;-60
2022/04/24 09:18:40;;;;;;;;;;;;;;;19.87;41.90;99971.03;5130400;27;2499;-60
2022/04/24 09:21:07;;;;;;;;;;;;;;;19.79;41.68;99970.72;5130407;27;2620;-62
2022/04/24 09:23:34;;;;;;;;;;;;;;;19.71;41.47;99973.34;5132473;27;1829;-67
2022/04/24 09:26:00;;;;;;;;;;;;;;;19.71;39.90;99970.47;5129781;27;2459;-59
2022/04/24 09:28:36;;;;;;;;;;;;;;;19.72;39.46;99972.66;5129748;27;2497;-60
2022/04/24 09:31:03;;;;;;;;;;;;;;;19.69;39.20;99970.38;5132292;27;1788;-60
2022/04/24 09:33:39;;;;;;;;;;;;;;;19.71;39.39;99973.34;5130077;27;2651;-60
2022/04/24 09:36:06;;;;;;;;;;;;;;;19.73;39.08;99967.66;5131327;27;2702;-60
2022/04/24 09:38:38;;;;;;;;;;;;;;;19.68;38.88;99975.38;5130171;27;2295;-60
2022/04/24 09:41:04;;;;;;;;;;;;;;;19.63;38.52;99959.38;5130787;27;2431;-60
2022/04/24 09:43:31;;;;;;;;;;;;;;;19.64;38.23;99973.09;5112496;27;1630;-60
2022/04/24 09:45:57;;;;;;;;;;;;;;;19.62;38.05;99967.25;5130030;27;1605;-60
2022/04/24 09:48:25;;;;;;;;;;;;;;;19.67;37.94;99963.13;5126878;27;2661;-60
2022/04/24 09:50:53;;;;;;;;;;;;;;;19.69;38.09;99958.91;5125628;27;3401;-60
2022/04/24 09:53:20;;;;;;;;;;;;;;;19.58;37.91;99972.88;5128734;27;3371;-60
2022/04/24 09:55:49;;;;;;;;;;;;;;;19.65;37.70;99963.09;5124709;27;3032;-61
2022/04/24 09:58:26;;;;;;;;;;;;;;;19.52;37.33;99969.78;5106284;27;2807;-62
2022/04/24 10:00:52;;;;;;;;;;;;;;;19.52;37.60;99966.91;5112720;27;3325;-62
2022/04/24 10:03:19;;;;;;;;;;;;;;;19.51;36.77;99965.44;5110049;27;2901;-66
2022/04/24 10:05:47;;;;;;;;;;;;;;;19.51;37.19;99974.03;5110705;27;3351;-62
2022/04/24 10:08:14;;;;;;;;;;;;;;;19.56;36.86;99972.81;5123456;27;2647;-61
2022/04/24 10:10:47;;;;;;;;;;;;;;;19.52;36.92;99974.81;5120034;27;2599;-59
2022/04/24 10:13:14;;;;;;;;;;;;;;;19.49;37.00;99962.50;5122483;27;2788;-59
2022/04/24 10:15:53;;;;;;;;;;;;;;;19.41;37.00;99956.47;5105961;27;2395;-60
2022/04/24 10:18:23;;;;;;;;;;;;;;;19.46;36.92;99963.81;5096641;27;3789;-60
2022/04/24 10:21:08;;;;;;;;;;;;;;;19.45;36.92;99962.38;5091949;27;3266;-60
2022/04/24 10:23:36;;;;;;;;;;;;;;;19.48;36.91;99958.16;5124291;27;2711;-60
2022/04/24 10:26:15;;;;;;;;;;;;;;;19.48;37.01;99963.91;5121861;27;2771;-59
2022/04/24 10:28:41;;;;;;;;;;;;;;;19.50;36.83;99946.00;5123891;27;2755;-60
2022/04/24 10:31:13;;;;;;;;;;;;;;;19.82;37.81;99955.06;5110950;27;2764;-59
2022/04/24 10:33:51;;;;;;;;;;;;;;;19.80;37.61;99949.97;5123076;27;2786;-60
2022/04/24 10:36:17;;;;;;;;;;;;;;;19.79;37.42;99947.75;5107015;27;2933;-60
2022/04/24 10:38:48;;;;;;;;;;;;;;;19.77;37.43;99944.81;5118762;27;2963;-60
2022/04/24 10:41:15;;;;;;;;;;;;;;;19.82;37.92;99970.16;5124560;27;2727;-60
2022/04/24 10:43:51;;;;;;;;;;;;;;;19.84;38.02;99960.88;5126126;27;2656;-60
2022/04/24 10:46:18;;;;;;;;;;;;;;;19.82;37.81;99952.91;5124909;27;2850;-60
2022/04/24 10:48:46;;;;;;;;;;;;;;;19.85;37.95;99950.84;5125631;27;1992;-60
2022/04/24 10:51:13;;;;;;;;;;;;;;;19.91;38.55;99947.44;5118420;27;2572;-59
2022/04/24 10:53:54;;;;;;;;;;;;;;;20.01;38.71;99945.63;5120194;27;3068;-60
2022/04/24 10:56:21;;;;;;;;;;;;;;;19.98;38.51;99949.84;5118799;27;2799;-60
2022/04/24 10:58:49;;;;;;;;;;;;;;;19.99;38.59;99944.84;5125397;27;2819;-60
2022/04/24 11:01:16;;;;;;;;;;;;;;;19.96;38.67;99946.91;5118442;27;2528;-61
2022/04/24 11:03:42;;;;;;;;;;;;;;;19.93;38.91;99950.38;5114440;27;3413;-60
2022/04/24 11:06:18;;;;;;;;;;;;;;;20.01;38.86;99948.50;5121101;27;2581;-61
2022/04/24 11:08:45;;;;;;;;;;;;;;;19.98;39.16;99935.47;5122573;27;2779;-61
2022/04/24 11:11:13;;;;;;;;;;;;;;;19.99;39.39;99948.44;5119513;27;2476;-64
2022/04/24 11:13:39;;;;;;;;;;;;;;;20.06;39.40;99943.63;5126393;27;1910;-62
2022/04/24 11:16:08;;;;;;;;;;;;;;;20.03;39.66;99930.59;5124690;27;2870;-62
2022/04/24 11:18:36;;;;;;;;;;;;;;;20.02;39.66;99941.38;5120772;27;2537;-59
2022/04/24 11:21:03;;;;;;;;;;;;;;;20.08;39.72;99941.56;5112840;27;3328;-61
2022/04/24 11:23:30;;;;;;;;;;;;;;;20.04;39.53;99938.56;5118112;27;2459;-61
2022/04/24 11:25:58;;;;;;;;;;;;;;;20.02;40.02;99946.34;5117623;27;2572;-61
2022/04/24 11:28:37;;;;;;;;;;;;;;;20.10;39.87;99938.03;5111843;27;3199;-60
2022/04/24 11:31:08;;;;;;;;;;;;;;;20.16;40.10;99938.22;5113845;27;2163;-60
2022/04/24 11:33:37;;;;;;;;;;;;;;;20.18;39.97;99929.66;5120871;27;2589;-60
2022/04/24 11:36:04;;;;;;;;;;;;;;;20.24;39.89;99932.00;5122472;27;1773;-60
2022/04/24 11:38:31;;;;;;;;;;;;;;;20.28;39.91;99937.88;5124849;27;2482;-61
2022/04/24 11:40:58;;;;;;;;;;;;;;;20.34;39.91;99940.19;5114364;27;2588;-60
2022/04/24 11:43:24;;;;;;;;;;;;;;;20.36;40.08;99938.13;5102651;27;2588;-60
2022/04/24 11:51:29;;;;;;;;;;;;;;;20.45;39.98;99922.59;5122435;27;1628;-61
2022/04/24 11:54:11;;;;;;;;;;;;;;;20.45;40.02;99931.22;5119547;27;2541;-61
2022/04/24 11:56:37;;;;;;;;;;;;;;;20.58;40.34;99923.00;5126412;27;2281;-60
2022/04/24 11:59:13;;;;;;;;;;;;;;;20.60;40.21;99925.97;5121849;27;2163;-60
2022/04/24 12:01:40;;;;;;;;;;;;;;;20.66;40.35;99923.25;5119646;27;2612;-59
2022/04/24 12:04:07;;;;;;;;;;;;;;;20.67;40.45;99918.97;5114786;27;3078;-61
2022/04/24 12:06:33;;;;;;;;;;;;;;;20.60;40.50;99920.19;5104574;27;2620;-62
2022/04/24 12:09:07;;;;;;;;;;;;;;;20.59;40.52;99921.59;5117288;27;2583;-61
2022/04/24 12:11:35;;;;;;;;;;;;;;;20.63;40.46;99919.56;5122740;27;1554;-61
2022/04/24 12:14:08;;;;;;;;;;;;;;;20.64;40.38;99923.22;5122144;27;2508;-61
2022/04/24 12:16:34;;;;;;;;;;;;;;;20.65;40.39;99916.03;5124814;27;2553;-62
2022/04/24 12:19:03;;;;;;;;;;;;;;;20.63;40.49;99907.34;5114383;27;2511;-63
2022/04/24 12:21:31;;;;;;;;;;;;;;;20.65;40.45;99908.13;5115686;27;2182;-61
2022/04/24 12:23:57;;;;;;;;;;;;;;;20.63;40.23;99910.22;5115600;27;2728;-62
2022/04/24 12:26:24;;;;;;;;;;;;;;;20.65;40.47;99911.00;5122562;27;2525;-61
2022/04/24 12:28:50;;;;;;;;;;;;;;;20.67;40.45;99901.72;5124089;27;2584;-60
2022/04/24 12:31:23;;;;;;;;;;;;;;;20.68;40.48;99894.53;5109800;27;2830;-61
2022/04/24 12:33:53;;;;;;;;;;;;;;;20.67;40.43;99890.94;5126269;27;1984;-60
2022/04/24 12:36:19;;;;;;;;;;;;;;;20.72;40.52;99886.03;5104989;27;5102;-70
2022/04/24 12:38:52;;;;;;;;;;;;;;;20.69;40.59;99887.41;5116897;27;2038;-62
2022/04/24 12:41:21;;;;;;;;;;;;;;;20.70;40.59;99891.72;5112948;28;3023;-61
2022/04/24 12:43:47;;;;;;;;;;;;;;;20.73;40.40;99887.53;5116274;28;2780;-67
2022/04/24 12:46:14;;;;;;;;;;;;;;;20.71;40.33;99893.22;5113453;28;2592;-60
2022/04/24 12:48:47;;;;;;;;;;;;;;;20.71;40.41;99888.19;5112801;28;3233;-60
2022/04/24 12:51:13;;;;;;;;;;;;;;;20.72;40.42;99880.28;5107685;28;3415;-59
2022/04/24 12:53:39;;;;;;;;;;;;;;;20.74;40.47;99885.38;5113832;28;2731;-60
2022/04/24 12:56:06;;;;;;;;;;;;;;;20.68;40.42;99866.53;5116751;28;2997;-60
2022/04/24 12:58:32;;;;;;;;;;;;;;;20.71;40.37;99873.81;5125339;28;2819;-62